Bookmark and Share
Track history (hours):
 

Courageous

Last reported at 2013-Oct-21 00:28 UTC. Time now 2014-Apr-18 00:18 UTC.
Position N 49°26' W 126°52'.
Warning: this ship's position is months out of date.

Length 54 m; draft 6 m.

Type: Ship (hazmat cat B). MMSI: 368499000.

NotesDate/timePositionNaut miles runAvg speedWind from/ knotsBaromVisibWave heightAir tempDewpointWater temp
2013-Oct-21 00:28N 49°26' W 126°52'1010.7
2013-Oct-20 23:34N 49°20' W 126°40'1110.7
2013-Oct-20 22:33N 49°15' W 126°26'2010.2
2013-Oct-20 20:33N 49°02' W 126°01'1010.1
2013-Oct-20 19:33N 48°56' W 125°49'1010.3
2013-Oct-20 18:34N 48°50' W 125°36'1110.6
2013-Oct-20 17:33N 48°45' W 125°22'6510.8
2013-Oct-20 11:31N 48°18' W 123°53'9 9.5
2013-Oct-20 10:33N 48°16' W 123°39'9 9.1
2013-Oct-20 09:32N 48°15' W 123°25'1010.0
2013-Oct-20 08:33N 48°13' W 123°11'2310.9
2013-Oct-20 06:28N 48°06' W 122°39'1112.3
2013-Oct-20 05:33N 47°56' W 122°30'1111.1
2013-Oct-20 04:33N 47°45' W 122°26'6 5.2
2013-Oct-20 03:28N 47°40' W 122°24'0 0.0
2013-Oct-20 02:33N 47°40' W 122°24'0 0.0
2013-Oct-20 01:28N 47°40' W 122°24'0 0.0
2013-Oct-20 00:33N 47°40' W 122°24'0 0.0
2013-Oct-19 23:33N 47°40' W 122°24'0 0.0
2013-Oct-19 22:30N 47°40' W 122°24'0 0.0
2013-Oct-19 21:33N 47°40' W 122°24'0 0.0
2013-Oct-19 20:33N 47°40' W 122°24'0 0.0
2013-Oct-19 19:33N 47°40' W 122°24'0 0.3
2013-Oct-19 18:33N 47°40' W 122°23'0 0.0
2013-Oct-19 17:33N 47°40' W 122°23'0 0.0
2013-Oct-19 16:33N 47°40' W 122°23'0 0.0
2013-Oct-19 15:34N 47°40' W 122°23'0 0.0
2013-Oct-19 14:33N 47°40' W 122°23'0 0.3
2013-Oct-19 13:33N 47°40' W 122°24'0 0.0
2013-Oct-19 12:33N 47°40' W 122°24'0 0.0
2013-Oct-19 11:33N 47°40' W 122°24'0 0.0
2013-Oct-19 10:33N 47°40' W 122°24'0 0.0
2013-Oct-19 09:33N 47°40' W 122°24'0 0.0
2013-Oct-19 08:33N 47°40' W 122°24'0 0.0
2013-Oct-19 07:34N 47°40' W 122°24'0 0.0
2013-Oct-19 06:32N 47°40' W 122°24'0 0.0
2013-Oct-19 05:33N 47°40' W 122°24'0 0.0
2013-Oct-19 04:33N 47°40' W 122°24'0 0.0
2013-Oct-19 03:33N 47°40' W 122°24'0 0.0
2013-Oct-19 02:33N 47°40' W 122°24'0 0.0
2013-Oct-19 01:33N 47°40' W 122°24'0 0.0
2013-Oct-19 00:33N 47°40' W 122°24'0 0.0
2013-Oct-18 23:33N 47°40' W 122°24'0 0.0
2013-Oct-18 22:33N 47°40' W 122°24'0 0.0
2013-Oct-18 21:33N 47°40' W 122°24'0 0.0
2013-Oct-18 20:33N 47°40' W 122°24'0 0.0
2013-Oct-18 19:33N 47°40' W 122°24'0 0.0
2013-Oct-18 18:33N 47°40' W 122°24'0 0.0
2013-Oct-18 17:33N 47°40' W 122°24'0 0.0
2013-Oct-18 16:33N 47°40' W 122°24'0 0.0
2013-Oct-18 15:33N 47°40' W 122°24'0 0.0
2013-Oct-18 14:33N 47°40' W 122°24'0 0.0
2013-Oct-18 13:33N 47°40' W 122°24'0 0.0
2013-Oct-18 12:33N 47°40' W 122°24'0 0.0
2013-Oct-18 11:33N 47°40' W 122°24'0 0.0
2013-Oct-18 10:33N 47°40' W 122°24'0 0.0
2013-Oct-18 09:33N 47°40' W 122°24'0 0.0
2013-Oct-18 08:33N 47°40' W 122°24'0 0.0
2013-Oct-18 07:33N 47°40' W 122°24'0 0.0
2013-Oct-18 06:33N 47°40' W 122°24'0 0.0
2013-Oct-18 05:34N 47°40' W 122°24'0 0.0
2013-Oct-18 04:33N 47°40' W 122°24'0 0.0
2013-Oct-18 03:33N 47°40' W 122°24'0 0.0
2013-Oct-18 02:33N 47°40' W 122°24'0 0.0
2013-Oct-18 01:33N 47°40' W 122°24'0 0.0
2013-Oct-18 00:33N 47°40' W 122°24'0 0.0
2013-Oct-17 23:33N 47°40' W 122°24'0 0.0
2013-Oct-17 22:34N 47°40' W 122°24'0 0.0
2013-Oct-17 21:33N 47°40' W 122°24'0 0.0
2013-Oct-17 20:33N 47°40' W 122°24'0 0.0
2013-Oct-17 19:33N 47°40' W 122°24'0 0.0
2013-Oct-17 18:33N 47°40' W 122°24'0 0.0
2013-Oct-17 17:33N 47°40' W 122°24'0 0.0
2013-Oct-17 16:33N 47°40' W 122°24'0 0.0
2013-Oct-17 15:34N 47°40' W 122°24'0 0.0
2013-Oct-17 14:33N 47°40' W 122°24'0 0.0
2013-Oct-17 13:33N 47°40' W 122°24'0 0.0
2013-Oct-17 12:33N 47°40' W 122°24'0 0.0
2013-Oct-17 11:34N 47°40' W 122°24'0 0.0
2013-Oct-17 10:34N 47°40' W 122°24'0 0.0
2013-Oct-17 09:33N 47°40' W 122°24'0 0.0
2013-Oct-17 08:33N 47°40' W 122°24'0 0.0
2013-Oct-17 07:33N 47°40' W 122°24'0 0.0
2013-Oct-17 06:33N 47°40' W 122°24'0 0.0
2013-Oct-17 05:33N 47°40' W 122°24'0 0.0
2013-Oct-17 04:33N 47°40' W 122°24'0 0.0
2013-Oct-17 03:33N 47°40' W 122°24'0 0.0
2013-Oct-17 02:34N 47°40' W 122°24'0 0.0
2013-Oct-17 01:33N 47°40' W 122°24'0 0.0
2013-Oct-17 00:33N 47°40' W 122°24'0 0.0
2013-Oct-16 23:33N 47°40' W 122°24'0 0.0
2013-Oct-16 22:33N 47°40' W 122°24'0 0.1
2013-Oct-16 21:33N 47°40' W 122°23'0 0.4
2013-Oct-16 20:33N 47°40' W 122°23'0 0.0
2013-Oct-16 19:33N 47°40' W 122°23'0 0.0
2013-Oct-16 18:33N 47°40' W 122°23'0 0.0
2013-Oct-16 17:33N 47°40' W 122°23'0 0.0
2013-Oct-16 16:33N 47°40' W 122°23'0 0.0
2013-Oct-16 15:33N 47°40' W 122°23'0 0.0
2013-Oct-16 14:34N 47°40' W 122°23'0 0.0
2013-Oct-16 13:33N 47°40' W 122°23'0 0.0
2013-Oct-16 12:33N 47°40' W 122°23'0 0.0
2013-Oct-16 11:33N 47°40' W 122°23'0 0.0
2013-Oct-16 10:33N 47°40' W 122°23'0 0.0
2013-Oct-16 09:34N 47°40' W 122°23'0 0.0
2013-Oct-16 08:33N 47°40' W 122°23'0 0.0
2013-Oct-16 07:33N 47°40' W 122°23'0 0.0
2013-Oct-16 06:33N 47°40' W 122°23'0 0.0
2013-Oct-16 05:33N 47°40' W 122°23'0 0.0
2013-Oct-16 04:33N 47°40' W 122°23'0 0.0
2013-Oct-16 03:33N 47°40' W 122°23'0 0.0
2013-Oct-16 02:33N 47°40' W 122°23'0 0.0
2013-Oct-16 01:33N 47°40' W 122°23'0 0.0
2013-Oct-16 00:34N 47°40' W 122°23'0 0.0
2013-Oct-15 23:33N 47°40' W 122°23'0 0.0
2013-Oct-15 22:33N 47°40' W 122°23'0 0.0
2013-Oct-15 21:33N 47°40' W 122°23'0 0.0
2013-Oct-15 20:33N 47°40' W 122°23'0 0.0
2013-Oct-15 19:33N 47°40' W 122°23'0 0.0
2013-Oct-15 18:33N 47°40' W 122°23'0 0.0
2013-Oct-15 17:33N 47°40' W 122°23'0 0.0
2013-Oct-15 16:33N 47°40' W 122°23'0 0.0
2013-Oct-15 15:33N 47°40' W 122°23'0 0.0
2013-Oct-15 14:34N 47°40' W 122°23'0 0.0
2013-Oct-15 13:33N 47°40' W 122°23'0 0.0
2013-Oct-15 12:33N 47°40' W 122°23'0 0.0
2013-Oct-15 11:33N 47°40' W 122°23'0 0.0
2013-Oct-15 10:33N 47°40' W 122°23'0 0.0
2013-Oct-15 09:33N 47°40' W 122°23'0 0.0
2013-Oct-15 08:33N 47°40' W 122°23'0 0.0
2013-Oct-15 07:33N 47°40' W 122°23'0 0.0
2013-Oct-15 06:33N 47°40' W 122°23'0 0.0
2013-Oct-15 05:33N 47°40' W 122°23'0 0.0
2013-Oct-15 04:33N 47°40' W 122°23'0 0.0
2013-Oct-15 03:33N 47°40' W 122°23'0 0.0
2013-Oct-15 02:33N 47°40' W 122°23'0 0.0
2013-Oct-15 01:33N 47°40' W 122°23'0 0.0
2013-Oct-15 00:33N 47°40' W 122°23'0 0.0
2013-Oct-14 23:33N 47°40' W 122°23'0 0.0
2013-Oct-14 22:34N 47°40' W 122°23'0 0.0
2013-Oct-14 21:34N 47°40' W 122°23'0 0.0
2013-Oct-14 20:33N 47°40' W 122°23'0 0.0
2013-Oct-14 19:33N 47°40' W 122°23'0 0.0
2013-Oct-14 18:33N 47°40' W 122°23'0 0.0
2013-Oct-14 17:33N 47°40' W 122°23'0 0.0
2013-Oct-14 16:33N 47°40' W 122°23'0 0.0
2013-Oct-14 15:33N 47°40' W 122°23'0 0.0
2013-Oct-14 14:33N 47°40' W 122°23'0 0.0
2013-Oct-14 13:33N 47°40' W 122°23'0 0.0
2013-Oct-14 12:33N 47°40' W 122°23'0 0.0
2013-Oct-14 11:33N 47°40' W 122°23'0 0.0
2013-Oct-14 10:34N 47°40' W 122°23'0 0.0
2013-Oct-14 09:33N 47°40' W 122°23'0 0.0
2013-Oct-14 08:33N 47°40' W 122°23'0 0.0
2013-Oct-14 07:34N 47°40' W 122°23'0 0.0
2013-Oct-14 06:33N 47°40' W 122°23'0 0.0
2013-Oct-14 05:33N 47°40' W 122°23'0 0.0
2013-Oct-14 04:34N 47°40' W 122°23'0 0.0
2013-Oct-14 03:33N 47°40' W 122°23'0 0.0
2013-Oct-14 02:34N 47°40' W 122°23'0 0.0
2013-Oct-14 01:33N 47°40' W 122°23'0 0.0
2013-Oct-14 00:33N 47°40' W 122°23'0 0.0
2013-Oct-13 23:33N 47°40' W 122°23'0 0.0
2013-Oct-13 22:33N 47°40' W 122°23'0 0.0
2013-Oct-13 21:33N 47°40' W 122°23'0 0.0
2013-Oct-13 20:33N 47°40' W 122°23'0 0.0
2013-Oct-13 19:33N 47°40' W 122°23'0 0.0
2013-Oct-13 18:33N 47°40' W 122°23'0 0.0
2013-Oct-13 17:33N 47°40' W 122°23'0 0.0
2013-Oct-13 16:33N 47°40' W 122°23'0 0.0
2013-Oct-13 15:33N 47°40' W 122°23'0 0.0
2013-Oct-13 14:33N 47°40' W 122°23'0 0.0
2013-Oct-13 13:33N 47°40' W 122°23'0 0.0
2013-Oct-13 12:34N 47°40' W 122°23'0 0.0
2013-Oct-13 11:34N 47°40' W 122°23'0 0.0
2013-Oct-13 10:33N 47°40' W 122°23'0 0.0
2013-Oct-13 09:33N 47°40' W 122°23'0 0.0
2013-Oct-13 08:33N 47°40' W 122°23'0 0.0
2013-Oct-13 07:33N 47°40' W 122°23'0 0.0
2013-Oct-13 06:33N 47°40' W 122°23'0 0.0
2013-Oct-13 05:33N 47°40' W 122°23'0 0.0
2013-Oct-13 04:33N 47°40' W 122°23'0 0.0
2013-Oct-13 03:33N 47°40' W 122°23'0 0.0
2013-Oct-13 02:33N 47°40' W 122°23'0 0.0
2013-Oct-13 01:33N 47°40' W 122°23'0 0.0
2013-Oct-13 00:33N 47°40' W 122°23'0 0.0
2013-Oct-12 23:33N 47°40' W 122°23'0 0.0
2013-Oct-12 22:32N 47°40' W 122°23'0 0.0
2013-Oct-12 21:33N 47°40' W 122°23'0 0.0
2013-Oct-12 20:33N 47°40' W 122°23'0 0.0
2013-Oct-12 19:33N 47°40' W 122°23'0 0.0
2013-Oct-12 18:33N 47°40' W 122°23'0 0.0
2013-Oct-12 17:33N 47°40' W 122°23'0 0.0
2013-Oct-12 16:33N 47°40' W 122°23'0 0.0
2013-Oct-12 15:33N 47°40' W 122°23'0 0.0
2013-Oct-12 14:33N 47°40' W 122°23'0 0.0
2013-Oct-12 13:33N 47°40' W 122°23'0 0.0
2013-Oct-12 12:33N 47°40' W 122°23'0 0.0
2013-Oct-12 11:33N 47°40' W 122°23'0 0.0
2013-Oct-12 10:33N 47°40' W 122°23'0 0.0
2013-Oct-12 09:33N 47°40' W 122°23'0 0.0
2013-Oct-12 08:33N 47°40' W 122°23'0 0.0
2013-Oct-12 07:33N 47°40' W 122°23'0 0.0
2013-Oct-12 06:33N 47°40' W 122°23'0 0.0
2013-Oct-12 05:34N 47°40' W 122°23'0 0.0
2013-Oct-12 04:33N 47°40' W 122°23'0 0.0
2013-Oct-12 03:33N 47°40' W 122°23'0 0.0
2013-Oct-12 02:33N 47°40' W 122°23'0 0.0
2013-Oct-12 01:33N 47°40' W 122°23'0 0.0
2013-Oct-12 00:33N 47°40' W 122°23'0 0.0
2013-Oct-11 23:33N 47°40' W 122°23'0 0.0
2013-Oct-11 22:33N 47°40' W 122°23'0 0.0
2013-Oct-11 21:33N 47°40' W 122°23'0 0.0
2013-Oct-11 20:33N 47°40' W 122°23'0 0.0
2013-Oct-11 19:34N 47°40' W 122°23'0 0.0
2013-Oct-11 18:34N 47°40' W 122°23'0 0.0
2013-Oct-11 17:34N 47°40' W 122°23'0 0.0
2013-Oct-11 16:33N 47°40' W 122°23'0 0.0
2013-Oct-11 15:33N 47°40' W 122°23'0 0.0
2013-Oct-11 14:33N 47°40' W 122°23'0 0.0
2013-Oct-11 13:33N 47°40' W 122°23'0 0.0
2013-Oct-11 12:33N 47°40' W 122°23'0 0.0
2013-Oct-11 11:33N 47°40' W 122°23'0 0.0
2013-Oct-11 10:34N 47°40' W 122°23'0 0.0
2013-Oct-11 09:34N 47°40' W 122°23'0 0.0
2013-Oct-11 08:34N 47°40' W 122°23'0 0.0
2013-Oct-11 07:33N 47°40' W 122°23'0 0.0
2013-Oct-11 06:33N 47°40' W 122°23'0 0.0
2013-Oct-11 05:34N 47°40' W 122°23'0 0.0
2013-Oct-11 04:33N 47°40' W 122°23'0 0.0
2013-Oct-11 03:33N 47°40' W 122°23'0 0.0
2013-Oct-11 02:33N 47°40' W 122°23'0 0.0
2013-Oct-11 01:34N 47°40' W 122°23'0 0.0
2013-Oct-11 00:33N 47°40' W 122°23'  

Dump ship's entire track history

sailing weather and tide predictions

Courageous — WBC5659 — position and weather